sensor_id;sensor_type;location;lat;lon;timestamp;temperature;humidity
21393;DHT22;10857;52.228;21.026;2023-09-18T05:31:49;19.40;99.90
21393;DHT22;10857;52.228;21.026;2023-09-18T05:34:16;19.30;99.90
21393;DHT22;10857;52.228;21.026;2023-09-18T05:36:43;19.40;99.90
21393;DHT22;10857;52.228;21.026;2023-09-18T05:39:10;19.40;99.90
21393;DHT22;10857;52.228;21.026;2023-09-18T05:41:40;19.50;99.90
21393;DHT22;10857;52.228;21.026;2023-09-18T05:44:07;19.50;99.90
21393;DHT22;10857;52.228;21.026;2023-09-18T05:46:34;19.50;99.90
21393;DHT22;10857;52.228;21.026;2023-09-18T05:49:04;19.50;99.90
21393;DHT22;10857;52.228;21.026;2023-09-18T05:51:31;19.50;99.90
21393;DHT22;10857;52.228;21.026;2023-09-18T05:54:00;19.50;99.90
21393;DHT22;10857;52.228;21.026;2023-09-18T05:56:27;19.50;99.90
21393;DHT22;10857;52.228;21.026;2023-09-18T05:58:54;19.60;99.90
21393;DHT22;10857;52.228;21.026;2023-09-18T06:01:22;19.50;99.90
21393;DHT22;10857;52.228;21.026;2023-09-18T06:03:49;19.60;99.90
21393;DHT22;10857;52.228;21.026;2023-09-18T06:06:16;19.60;99.90
21393;DHT22;10857;52.228;21.026;2023-09-18T06:08:43;19.70;99.90
21393;DHT22;10857;52.228;21.026;2023-09-18T06:11:10;19.80;99.90
21393;DHT22;10857;52.228;21.026;2023-09-18T06:13:37;19.80;99.90
21393;DHT22;10857;52.228;21.026;2023-09-18T06:16:05;19.80;99.90
21393;DHT22;10857;52.228;21.026;2023-09-18T06:18:35;19.90;99.90
21393;DHT22;10857;52.228;21.026;2023-09-18T06:21:05;20.00;99.90
21393;DHT22;10857;52.228;21.026;2023-09-18T06:23:32;19.90;99.90
21393;DHT22;10857;52.228;21.026;2023-09-18T06:26:00;20.00;99.90
21393;DHT22;10857;52.228;21.026;2023-09-18T06:28:27;20.10;99.90
21393;DHT22;10857;52.228;21.026;2023-09-18T06:30:54;20.20;99.90
21393;DHT22;10857;52.228;21.026;2023-09-18T06:33:22;20.20;99.90
21393;DHT22;10857;52.228;21.026;2023-09-18T06:35:49;20.30;99.90
21393;DHT22;10857;52.228;21.026;2023-09-18T06:38:17;20.40;99.90
21393;DHT22;10857;52.228;21.026;2023-09-18T06:40:44;20.50;99.90
21393;DHT22;10857;52.228;21.026;2023-09-18T06:43:11;20.60;99.90
21393;DHT22;10857;52.228;21.026;2023-09-18T06:45:38;20.70;99.90
21393;DHT22;10857;52.228;21.026;2023-09-18T06:48:06;20.80;99.90
21393;DHT22;10857;52.228;21.026;2023-09-18T06:50:33;20.90;99.90
21393;DHT22;10857;52.228;21.026;2023-09-18T06:53:00;20.90;99.90
21393;DHT22;10857;52.228;21.026;2023-09-18T06:55:27;21.10;99.90
21393;DHT22;10857;52.228;21.026;2023-09-18T06:57:54;21.20;99.90
21393;DHT22;10857;52.228;21.026;2023-09-18T07:00:21;21.30;99.90
21393;DHT22;10857;52.228;21.026;2023-09-18T07:02:48;21.40;99.90
21393;DHT22;10857;52.228;21.026;2023-09-18T07:05:16;21.40;99.90
21393;DHT22;10857;52.228;21.026;2023-09-18T07:07:43;21.50;99.90
21393;DHT22;10857;52.228;21.026;2023-09-18T07:10:10;21.50;99.90
21393;DHT22;10857;52.228;21.026;2023-09-18T07:12:38;21.60;99.90
21393;DHT22;10857;52.228;21.026;2023-09-18T07:15:06;21.70;99.90
21393;DHT22;10857;52.228;21.026;2023-09-18T07:17:33;21.80;99.00
21393;DHT22;10857;52.228;21.026;2023-09-18T07:20:02;22.00;90.60
21393;DHT22;10857;52.228;21.026;2023-09-18T07:22:46;22.00;82.00
21393;DHT22;10857;52.228;21.026;2023-09-18T07:25:15;22.10;78.80
21393;DHT22;10857;52.228;21.026;2023-09-18T07:27:42;22.10;80.50
21393;DHT22;10857;52.228;21.026;2023-09-18T07:30:13;22.10;81.30
21393;DHT22;10857;52.228;21.026;2023-09-18T07:32:44;22.20;89.40
21393;DHT22;10857;52.228;21.026;2023-09-18T07:35:12;22.20;73.50
21393;DHT22;10857;52.228;21.026;2023-09-18T07:37:42;22.40;70.30
21393;DHT22;10857;52.228;21.026;2023-09-18T07:40:12;22.40;66.60
21393;DHT22;10857;52.228;21.026;2023-09-18T07:42:39;22.50;64.00
21393;DHT22;10857;52.228;21.026;2023-09-18T07:45:06;22.60;61.70
21393;DHT22;10857;52.228;21.026;2023-09-18T07:47:33;22.60;59.90
21393;DHT22;10857;52.228;21.026;2023-09-18T07:50:00;22.70;59.90
21393;DHT22;10857;52.228;21.026;2023-09-18T07:52:28;22.70;61.40
21393;DHT22;10857;52.228;21.026;2023-09-18T07:54:56;22.70;59.90
21393;DHT22;10857;52.228;21.026;2023-09-18T07:57:26;22.70;59.90
21393;DHT22;10857;52.228;21.026;2023-09-18T07:59:55;22.60;62.00
21393;DHT22;10857;52.228;21.026;2023-09-18T08:02:22;22.80;64.20
21393;DHT22;10857;52.228;21.026;2023-09-18T08:04:49;22.80;59.90
21393;DHT22;10857;52.228;21.026;2023-09-18T08:07:17;22.90;61.50
21393;DHT22;10857;52.228;21.026;2023-09-18T08:09:45;22.90;59.70
21393;DHT22;10857;52.228;21.026;2023-09-18T08:12:14;22.90;59.70
21393;DHT22;10857;52.228;21.026;2023-09-18T08:14:41;23.00;59.70
21393;DHT22;10857;52.228;21.026;2023-09-18T08:17:08;23.10;59.60
21393;DHT22;10857;52.228;21.026;2023-09-18T08:19:36;23.10;59.60
21393;DHT22;10857;52.228;21.026;2023-09-18T08:22:04;23.10;59.50
21393;DHT22;10857;52.228;21.026;2023-09-18T08:24:31;23.20;59.50
21393;DHT22;10857;52.228;21.026;2023-09-18T08:26:58;23.10;59.60
21393;DHT22;10857;52.228;21.026;2023-09-18T08:29:25;23.20;59.50
21393;DHT22;10857;52.228;21.026;2023-09-18T08:31:53;23.30;59.50
21393;DHT22;10857;52.228;21.026;2023-09-18T08:34:20;23.50;59.30
21393;DHT22;10857;52.228;21.026;2023-09-18T08:36:49;23.50;59.20
21393;DHT22;10857;52.228;21.026;2023-09-18T08:39:16;23.60;59.20
21393;DHT22;10857;52.228;21.026;2023-09-18T08:41:44;23.60;59.30
21393;DHT22;10857;52.228;21.026;2023-09-18T08:44:17;23.80;59.20
21393;DHT22;10857;52.228;21.026;2023-09-18T08:46:44;23.90;59.10
21393;DHT22;10857;52.228;21.026;2023-09-18T08:49:11;24.00;58.90
21393;DHT22;10857;52.228;21.026;2023-09-18T08:51:39;24.00;59.00
21393;DHT22;10857;52.228;21.026;2023-09-18T08:54:09;24.00;59.00
21393;DHT22;10857;52.228;21.026;2023-09-18T08:56:37;24.00;59.00
21393;DHT22;10857;52.228;21.026;2023-09-18T08:59:04;24.10;59.00
21393;DHT22;10857;52.228;21.026;2023-09-18T09:01:31;24.20;58.90
21393;DHT22;10857;52.228;21.026;2023-09-18T09:03:59;24.10;58.90
21393;DHT22;10857;52.228;21.026;2023-09-18T09:06:27;24.30;58.90
21393;DHT22;10857;52.228;21.026;2023-09-18T09:08:54;24.30;58.90
21393;DHT22;10857;52.228;21.026;2023-09-18T09:11:22;24.40;58.80
21393;DHT22;10857;52.228;21.026;2023-09-18T09:14:11;24.60;58.70
21393;DHT22;10857;52.228;21.026;2023-09-18T09:16:40;24.50;58.80
21393;DHT22;10857;52.228;21.026;2023-09-18T09:19:07;24.40;58.80
21393;DHT22;10857;52.228;21.026;2023-09-18T09:21:39;24.50;58.80
21393;DHT22;10857;52.228;21.026;2023-09-18T09:24:06;24.60;58.80
21393;DHT22;10857;52.228;21.026;2023-09-18T09:26:33;24.80;58.70
21393;DHT22;10857;52.228;21.026;2023-09-18T09:29:19;24.90;58.60
21393;DHT22;10857;52.228;21.026;2023-09-18T09:31:48;25.00;48.40
21393;DHT22;10857;52.228;21.026;2023-09-18T09:34:25;25.00;48.40
21393;DHT22;10857;52.228;21.026;2023-09-18T09:36:57;25.10;41.70
21393;DHT22;10857;52.228;21.026;2023-09-18T09:39:24;25.10;41.70
21393;DHT22;10857;52.228;21.026;2023-09-18T09:41:53;25.20;41.70
21393;DHT22;10857;52.228;21.026;2023-09-18T09:44:20;25.30;41.80
21393;DHT22;10857;52.228;21.026;2023-09-18T09:46:48;25.30;41.80
21393;DHT22;10857;52.228;21.026;2023-09-18T09:49:16;25.30;41.90
21393;DHT22;10857;52.228;21.026;2023-09-18T09:51:44;25.30;41.90
21393;DHT22;10857;52.228;21.026;2023-09-18T09:54:12;25.50;42.00
21393;DHT22;10857;52.228;21.026;2023-09-18T09:59:07;25.60;42.10
21393;DHT22;10857;52.228;21.026;2023-09-18T10:01:35;25.60;42.10
21393;DHT22;10857;52.228;21.026;2023-09-18T10:04:14;25.60;42.10
21393;DHT22;10857;52.228;21.026;2023-09-18T10:07:07;25.70;42.10
21393;DHT22;10857;52.228;21.026;2023-09-18T10:09:34;25.80;42.20
21393;DHT22;10857;52.228;21.026;2023-09-18T10:12:04;26.00;42.30
21393;DHT22;10857;52.228;21.026;2023-09-18T10:14:35;26.00;42.30
21393;DHT22;10857;52.228;21.026;2023-09-18T10:17:19;26.10;42.40
21393;DHT22;10857;52.228;21.026;2023-09-18T10:22:30;26.00;42.40
21393;DHT22;10857;52.228;21.026;2023-09-18T10:25:14;26.10;42.40
21393;DHT22;10857;52.228;21.026;2023-09-18T10:27:47;26.20;42.50
21393;DHT22;10857;52.228;21.026;2023-09-18T10:30:21;26.30;42.50
21393;DHT22;10857;52.228;21.026;2023-09-18T10:32:51;26.20;42.50
21393;DHT22;10857;52.228;21.026;2023-09-18T10:35:18;26.40;42.60
21393;DHT22;10857;52.228;21.026;2023-09-18T10:37:48;26.50;42.80
21393;DHT22;10857;52.228;21.026;2023-09-18T10:40:18;26.50;42.90
21393;DHT22;10857;52.228;21.026;2023-09-18T10:42:46;26.60;42.90
21393;DHT22;10857;52.228;21.026;2023-09-18T10:45:14;26.60;42.90
21393;DHT22;10857;52.228;21.026;2023-09-18T10:47:44;26.60;43.00
21393;DHT22;10857;52.228;21.026;2023-09-18T10:50:25;26.60;43.00
21393;DHT22;10857;52.228;21.026;2023-09-18T10:52:52;26.70;43.10
21393;DHT22;10857;52.228;21.026;2023-09-18T10:55:21;26.70;43.10
21393;DHT22;10857;52.228;21.026;2023-09-18T10:57:56;26.70;43.10
21393;DHT22;10857;52.228;21.026;2023-09-18T11:00:28;26.80;43.20
21393;DHT22;10857;52.228;21.026;2023-09-18T11:03:15;26.90;43.20
21393;DHT22;10857;52.228;21.026;2023-09-18T11:05:47;26.80;43.20
21393;DHT22;10857;52.228;21.026;2023-09-18T11:08:27;26.70;43.20
21393;DHT22;10857;52.228;21.026;2023-09-18T11:11:02;26.70;43.20
21393;DHT22;10857;52.228;21.026;2023-09-18T11:21:32;26.80;43.30
21393;DHT22;10857;52.228;21.026;2023-09-18T11:24:16;26.90;43.40
21393;DHT22;10857;52.228;21.026;2023-09-18T11:26:46;27.10;43.50
21393;DHT22;10857;52.228;21.026;2023-09-18T11:29:21;27.00;43.50
21393;DHT22;10857;52.228;21.026;2023-09-18T11:31:51;27.00;43.50
21393;DHT22;10857;52.228;21.026;2023-09-18T11:34:25;27.10;43.50
21393;DHT22;10857;52.228;21.026;2023-09-18T11:36:58;27.10;43.60
21393;DHT22;10857;52.228;21.026;2023-09-18T11:39:36;27.00;43.60
21393;DHT22;10857;52.228;21.026;2023-09-18T11:42:14;27.00;43.50
21393;DHT22;10857;52.228;21.026;2023-09-18T11:44:44;27.00;43.50
21393;DHT22;10857;52.228;21.026;2023-09-18T11:47:20;27.00;43.50
21393;DHT22;10857;52.228;21.026;2023-09-18T11:49:54;27.00;43.50
21393;DHT22;10857;52.228;21.026;2023-09-18T11:52:29;27.10;43.60
21393;DHT22;10857;52.228;21.026;2023-09-18T11:55:00;27.10;43.60
21393;DHT22;10857;52.228;21.026;2023-09-18T11:57:27;27.10;43.60
21393;DHT22;10857;52.228;21.026;2023-09-18T11:59:56;27.20;43.60
21393;DHT22;10857;52.228;21.026;2023-09-18T12:02:31;27.30;43.70
21393;DHT22;10857;52.228;21.026;2023-09-18T12:05:14;27.30;43.70
21393;DHT22;10857;52.228;21.026;2023-09-18T12:07:44;27.30;43.60
21393;DHT22;10857;52.228;21.026;2023-09-18T12:10:15;27.50;43.70
21393;DHT22;10857;52.228;21.026;2023-09-18T12:12:44;27.50;43.70
21393;DHT22;10857;52.228;21.026;2023-09-18T12:15:17;27.50;43.70
21393;DHT22;10857;52.228;21.026;2023-09-18T12:17:46;27.50;43.70
21393;DHT22;10857;52.228;21.026;2023-09-18T12:20:17;27.60;43.70
21393;DHT22;10857;52.228;21.026;2023-09-18T12:22:49;27.50;43.70
21393;DHT22;10857;52.228;21.026;2023-09-18T12:25:17;27.50;43.70
21393;DHT22;10857;52.228;21.026;2023-09-18T12:27:52;27.40;43.60
21393;DHT22;10857;52.228;21.026;2023-09-18T12:30:21;27.30;43.60
21393;DHT22;10857;52.228;21.026;2023-09-18T12:32:50;27.30;43.50
21393;DHT22;10857;52.228;21.026;2023-09-18T12:35:18;27.10;43.50
21393;DHT22;10857;52.228;21.026;2023-09-18T12:37:46;27.00;43.40
21393;DHT22;10857;52.228;21.026;2023-09-18T12:40:27;27.00;43.40
21393;DHT22;10857;52.228;21.026;2023-09-18T12:42:56;26.90;43.30
21393;DHT22;10857;52.228;21.026;2023-09-18T12:45:24;26.90;43.30
21393;DHT22;10857;52.228;21.026;2023-09-18T12:47:53;26.90;43.30
21393;DHT22;10857;52.228;21.026;2023-09-18T12:50:21;27.00;43.40
21393;DHT22;10857;52.228;21.026;2023-09-18T12:52:48;27.10;43.50
21393;DHT22;10857;52.228;21.026;2023-09-18T12:55:25;27.20;43.50
21393;DHT22;10857;52.228;21.026;2023-09-18T12:57:53;27.30;43.60
21393;DHT22;10857;52.228;21.026;2023-09-18T13:00:22;27.40;43.50
21393;DHT22;10857;52.228;21.026;2023-09-18T13:02:50;27.50;43.50
21393;DHT22;10857;52.228;21.026;2023-09-18T13:05:23;27.50;43.50
21393;DHT22;10857;52.228;21.026;2023-09-18T13:07:54;27.60;43.60
21393;DHT22;10857;52.228;21.026;2023-09-18T13:10:23;27.60;43.50
21393;DHT22;10857;52.228;21.026;2023-09-18T13:12:54;27.50;43.50
21393;DHT22;10857;52.228;21.026;2023-09-18T13:17:59;27.50;43.50
21393;DHT22;10857;52.228;21.026;2023-09-18T13:20:29;27.50;43.50
21393;DHT22;10857;52.228;21.026;2023-09-18T13:22:58;27.40;43.50
21393;DHT22;10857;52.228;21.026;2023-09-18T13:25:34;27.30;43.40
21393;DHT22;10857;52.228;21.026;2023-09-18T13:28:03;27.40;43.50
21393;DHT22;10857;52.228;21.026;2023-09-18T13:30:31;27.40;43.50
21393;DHT22;10857;52.228;21.026;2023-09-18T13:33:12;27.30;43.50
21393;DHT22;10857;52.228;21.026;2023-09-18T13:35:41;27.30;43.50
21393;DHT22;10857;52.228;21.026;2023-09-18T13:38:10;27.40;43.60
21393;DHT22;10857;52.228;21.026;2023-09-18T13:40:46;27.40;43.60
21393;DHT22;10857;52.228;21.026;2023-09-18T13:43:14;27.50;43.70
21393;DHT22;10857;52.228;21.026;2023-09-18T13:45:49;27.50;43.60
21393;DHT22;10857;52.228;21.026;2023-09-18T13:48:20;27.40;43.70
21393;DHT22;10857;52.228;21.026;2023-09-18T13:50:48;27.40;43.60
21393;DHT22;10857;52.228;21.026;2023-09-18T13:53:18;27.40;43.60
21393;DHT22;10857;52.228;21.026;2023-09-18T13:55:45;27.40;43.70
21393;DHT22;10857;52.228;21.026;2023-09-18T13:58:12;27.40;43.70
21393;DHT22;10857;52.228;21.026;2023-09-18T14:00:42;27.30;43.60
21393;DHT22;10857;52.228;21.026;2023-09-18T14:03:10;27.20;43.60
21393;DHT22;10857;52.228;21.026;2023-09-18T14:05:39;27.10;43.60
21393;DHT22;10857;52.228;21.026;2023-09-18T14:08:06;27.10;43.60
21393;DHT22;10857;52.228;21.026;2023-09-18T14:10:34;27.10;43.60
21393;DHT22;10857;52.228;21.026;2023-09-18T14:13:00;27.10;43.60
21393;DHT22;10857;52.228;21.026;2023-09-18T14:15:27;27.00;43.60
21393;DHT22;10857;52.228;21.026;2023-09-18T14:17:56;27.00;43.60
21393;DHT22;10857;52.228;21.026;2023-09-18T14:20:23;27.00;43.60
21393;DHT22;10857;52.228;21.026;2023-09-18T14:22:51;27.00;43.60
21393;DHT22;10857;52.228;21.026;2023-09-18T14:25:20;27.00;43.60
21393;DHT22;10857;52.228;21.026;2023-09-18T14:27:49;27.00;43.60
21393;DHT22;10857;52.228;21.026;2023-09-18T14:30:16;27.00;43.60
21393;DHT22;10857;52.228;21.026;2023-09-18T14:32:44;27.00;43.60
21393;DHT22;10857;52.228;21.026;2023-09-18T14:35:11;27.00;43.60
21393;DHT22;10857;52.228;21.026;2023-09-18T14:37:38;27.00;43.60
21393;DHT22;10857;52.228;21.026;2023-09-18T14:40:05;27.00;43.60
21393;DHT22;10857;52.228;21.026;2023-09-18T14:42:34;27.00;43.60
21393;DHT22;10857;52.228;21.026;2023-09-18T14:45:04;26.90;43.50
21393;DHT22;10857;52.228;21.026;2023-09-18T14:47:31;26.90;43.50
21393;DHT22;10857;52.228;21.026;2023-09-18T14:49:58;26.90;43.60
21393;DHT22;10857;52.228;21.026;2023-09-18T14:52:25;26.80;43.50
21393;DHT22;10857;52.228;21.026;2023-09-18T14:54:53;26.80;43.60
21393;DHT22;10857;52.228;21.026;2023-09-18T14:57:20;26.90;43.60
21393;DHT22;10857;52.228;21.026;2023-09-18T14:59:47;26.80;43.50
21393;DHT22;10857;52.228;21.026;2023-09-18T15:02:15;26.80;43.50
21393;DHT22;10857;52.228;21.026;2023-09-18T15:04:44;26.80;43.50
21393;DHT22;10857;52.228;21.026;2023-09-18T15:07:11;26.70;43.50
21393;DHT22;10857;52.228;21.026;2023-09-18T15:09:39;26.60;43.50
21393;DHT22;10857;52.228;21.026;2023-09-18T15:12:07;26.60;43.50
21393;DHT22;10857;52.228;21.026;2023-09-18T15:14:35;26.50;43.40
21393;DHT22;10857;52.228;21.026;2023-09-18T15:17:03;26.50;43.40
21393;DHT22;10857;52.228;21.026;2023-09-18T15:19:31;26.50;43.40
21393;DHT22;10857;52.228;21.026;2023-09-18T15:21:59;26.40;43.40
21393;DHT22;10857;52.228;21.026;2023-09-18T15:24:28;26.30;43.30
21393;DHT22;10857;52.228;21.026;2023-09-18T15:26:55;26.30;43.30
21393;DHT22;10857;52.228;21.026;2023-09-18T15:29:24;26.30;43.30
21393;DHT22;10857;52.228;21.026;2023-09-18T15:31:51;26.30;43.30
21393;DHT22;10857;52.228;21.026;2023-09-18T15:34:18;26.30;43.30
21393;DHT22;10857;52.228;21.026;2023-09-18T15:36:45;26.30;43.30
21393;DHT22;10857;52.228;21.026;2023-09-18T15:39:12;26.20;43.30
21393;DHT22;10857;52.228;21.026;2023-09-18T15:41:40;26.20;43.30
21393;DHT22;10857;52.228;21.026;2023-09-18T15:44:08;26.20;43.20
21393;DHT22;10857;52.228;21.026;2023-09-18T15:46:39;26.10;43.20
21393;DHT22;10857;52.228;21.026;2023-09-18T15:49:06;26.10;43.20
21393;DHT22;10857;52.228;21.026;2023-09-18T15:51:33;26.10;43.20
21393;DHT22;10857;52.228;21.026;2023-09-18T15:54:00;26.00;43.10
21393;DHT22;10857;52.228;21.026;2023-09-18T15:56:27;26.00;43.10
21393;DHT22;10857;52.228;21.026;2023-09-18T15:58:54;25.90;43.10
21393;DHT22;10857;52.228;21.026;2023-09-18T16:01:22;25.90;43.10
21393;DHT22;10857;52.228;21.026;2023-09-18T16:03:49;25.80;43.00
21393;DHT22;10857;52.228;21.026;2023-09-18T16:06:17;25.80;43.00
21393;DHT22;10857;52.228;21.026;2023-09-18T16:08:45;25.80;43.00
21393;DHT22;10857;52.228;21.026;2023-09-18T16:11:13;25.70;43.00
21393;DHT22;10857;52.228;21.026;2023-09-18T16:13:43;25.60;42.90
21393;DHT22;10857;52.228;21.026;2023-09-18T16:16:10;25.60;42.90
21393;DHT22;10857;52.228;21.026;2023-09-18T16:18:38;25.60;42.90
21393;DHT22;10857;52.228;21.026;2023-09-18T16:21:14;25.60;42.90
21393;DHT22;10857;52.228;21.026;2023-09-18T16:23:42;25.50;42.80
21393;DHT22;10857;52.228;21.026;2023-09-18T16:26:09;25.50;42.80
21393;DHT22;10857;52.228;21.026;2023-09-18T16:28:37;25.40;42.80
21393;DHT22;10857;52.228;21.026;2023-09-18T16:31:04;25.40;42.80
21393;DHT22;10857;52.228;21.026;2023-09-18T16:33:35;25.40;42.80
21393;DHT22;10857;52.228;21.026;2023-09-18T16:36:03;25.30;42.70
21393;DHT22;10857;52.228;21.026;2023-09-18T16:38:30;25.30;42.70
21393;DHT22;10857;52.228;21.026;2023-09-18T16:40:57;25.30;42.70
21393;DHT22;10857;52.228;21.026;2023-09-18T16:43:26;25.20;42.70
21393;DHT22;10857;52.228;21.026;2023-09-18T16:46:06;25.20;42.60
21393;DHT22;10857;52.228;21.026;2023-09-18T16:48:33;25.10;42.60
21393;DHT22;10857;52.228;21.026;2023-09-18T16:51:03;25.10;42.60
21393;DHT22;10857;52.228;21.026;2023-09-18T16:53:31;25.00;49.30
21393;DHT22;10857;52.228;21.026;2023-09-18T16:55:58;25.00;49.30
21393;DHT22;10857;52.228;21.026;2023-09-18T16:58:25;25.00;49.30
21393;DHT22;10857;52.228;21.026;2023-09-18T17:00:52;24.90;58.00
21393;DHT22;10857;52.228;21.026;2023-09-18T17:03:20;24.90;58.00
21393;DHT22;10857;52.228;21.026;2023-09-18T17:05:48;24.80;58.00
21393;DHT22;10857;52.228;21.026;2023-09-18T17:08:16;24.80;58.00
21393;DHT22;10857;52.228;21.026;2023-09-18T17:10:43;24.80;58.00
21393;DHT22;10857;52.228;21.026;2023-09-18T17:13:11;24.70;58.00
21393;DHT22;10857;52.228;21.026;2023-09-18T17:15:37;24.70;58.00
21393;DHT22;10857;52.228;21.026;2023-09-18T17:18:04;24.70;58.10
21393;DHT22;10857;52.228;21.026;2023-09-18T17:20:32;24.70;58.10
21393;DHT22;10857;52.228;21.026;2023-09-18T17:22:59;24.60;58.10
21393;DHT22;10857;52.228;21.026;2023-09-18T17:25:27;24.60;58.10
21393;DHT22;10857;52.228;21.026;2023-09-18T17:27:54;24.60;58.10
21393;DHT22;10857;52.228;21.026;2023-09-18T17:30:23;24.50;58.10
21393;DHT22;10857;52.228;21.026;2023-09-18T17:32:51;24.50;58.10
21393;DHT22;10857;52.228;21.026;2023-09-18T17:35:18;24.40;58.20
21393;DHT22;10857;52.228;21.026;2023-09-18T17:37:45;24.40;58.20
21393;DHT22;10857;52.228;21.026;2023-09-18T17:40:12;24.40;58.20
21393;DHT22;10857;52.228;21.026;2023-09-18T17:42:39;24.40;58.20
21393;DHT22;10857;52.228;21.026;2023-09-18T17:45:07;24.40;58.20
21393;DHT22;10857;52.228;21.026;2023-09-18T17:47:34;24.30;58.20
21393;DHT22;10857;52.228;21.026;2023-09-18T17:50:01;24.30;58.30
21393;DHT22;10857;52.228;21.026;2023-09-18T17:52:28;24.20;58.30
21393;DHT22;10857;52.228;21.026;2023-09-18T17:54:55;24.20;58.30
21393;DHT22;10857;52.228;21.026;2023-09-18T17:57:24;24.20;58.30
21393;DHT22;10857;52.228;21.026;2023-09-18T17:59:51;24.20;58.30
21393;DHT22;10857;52.228;21.026;2023-09-18T18:02:19;24.10;58.30
21393;DHT22;10857;52.228;21.026;2023-09-18T18:04:46;24.10;58.30
21393;DHT22;10857;52.228;21.026;2023-09-18T18:07:14;24.10;58.30
21393;DHT22;10857;52.228;21.026;2023-09-18T18:09:41;24.00;58.40
21393;DHT22;10857;52.228;21.026;2023-09-18T18:12:08;24.00;58.40
21393;DHT22;10857;52.228;21.026;2023-09-18T18:14:35;24.00;58.40
21393;DHT22;10857;52.228;21.026;2023-09-18T18:17:02;23.90;58.40
21393;DHT22;10857;52.228;21.026;2023-09-18T18:19:30;23.80;58.40
21393;DHT22;10857;52.228;21.026;2023-09-18T18:21:57;23.80;58.40
21393;DHT22;10857;52.228;21.026;2023-09-18T18:24:24;23.90;58.40
21393;DHT22;10857;52.228;21.026;2023-09-18T18:26:51;23.80;58.40
21393;DHT22;10857;52.228;21.026;2023-09-18T18:29:19;23.80;58.50
21393;DHT22;10857;52.228;21.026;2023-09-18T18:31:47;23.80;58.50
21393;DHT22;10857;52.228;21.026;2023-09-18T18:34:16;23.70;58.50
21393;DHT22;10857;52.228;21.026;2023-09-18T18:36:44;23.70;58.50
21393;DHT22;10857;52.228;21.026;2023-09-18T18:39:15;23.70;58.50
21393;DHT22;10857;52.228;21.026;2023-09-18T18:41:42;23.70;58.50
21393;DHT22;10857;52.228;21.026;2023-09-18T18:44:10;23.70;58.50
21393;DHT22;10857;52.228;21.026;2023-09-18T18:46:37;23.60;58.50
21393;DHT22;10857;52.228;21.026;2023-09-18T18:49:04;23.60;58.50
21393;DHT22;10857;52.228;21.026;2023-09-18T18:51:31;23.60;58.50
21393;DHT22;10857;52.228;21.026;2023-09-18T18:53:59;23.50;58.50
21393;DHT22;10857;52.228;21.026;2023-09-18T18:56:30;23.50;58.50
21393;DHT22;10857;52.228;21.026;2023-09-18T18:58:57;23.50;58.60
21393;DHT22;10857;52.228;21.026;2023-09-18T19:01:24;23.50;58.60
21393;DHT22;10857;52.228;21.026;2023-09-18T19:03:56;23.40;58.60
21393;DHT22;10857;52.228;21.026;2023-09-18T19:06:44;23.40;58.60
21393;DHT22;10857;52.228;21.026;2023-09-18T19:09:12;23.40;58.60
21393;DHT22;10857;52.228;21.026;2023-09-18T19:11:41;23.30;58.60
21393;DHT22;10857;52.228;21.026;2023-09-18T19:14:09;23.20;58.60
21393;DHT22;10857;52.228;21.026;2023-09-18T19:16:36;23.20;58.60
21393;DHT22;10857;52.228;21.026;2023-09-18T19:19:03;23.20;58.70
21393;DHT22;10857;52.228;21.026;2023-09-18T19:21:30;23.10;58.70
21393;DHT22;10857;52.228;21.026;2023-09-18T19:23:59;23.10;58.70
21393;DHT22;10857;52.228;21.026;2023-09-18T19:26:27;23.10;58.70
21393;DHT22;10857;52.228;21.026;2023-09-18T19:28:54;23.20;58.70
21393;DHT22;10857;52.228;21.026;2023-09-18T19:31:21;23.10;58.70
21393;DHT22;10857;52.228;21.026;2023-09-18T19:33:48;23.10;58.70
21393;DHT22;10857;52.228;21.026;2023-09-18T19:36:16;23.00;58.70
21393;DHT22;10857;52.228;21.026;2023-09-18T19:38:43;23.10;58.70
21393;DHT22;10857;52.228;21.026;2023-09-18T19:41:11;23.00;58.70
21393;DHT22;10857;52.228;21.026;2023-09-18T19:43:38;23.00;58.70
21393;DHT22;10857;52.228;21.026;2023-09-18T19:46:06;23.00;58.70
21393;DHT22;10857;52.228;21.026;2023-09-18T19:48:37;23.00;58.70
21393;DHT22;10857;52.228;21.026;2023-09-18T19:51:04;22.90;58.70
21393;DHT22;10857;52.228;21.026;2023-09-18T19:53:31;22.90;58.80
21393;DHT22;10857;52.228;21.026;2023-09-18T19:55:59;22.90;58.80
21393;DHT22;10857;52.228;21.026;2023-09-18T19:58:27;22.90;58.80
21393;DHT22;10857;52.228;21.026;2023-09-18T20:00:58;22.90;58.80
21393;DHT22;10857;52.228;21.026;2023-09-18T20:03:25;22.80;58.80
21393;DHT22;10857;52.228;21.026;2023-09-18T20:05:52;22.80;58.80
21393;DHT22;10857;52.228;21.026;2023-09-18T20:08:20;22.80;58.80
21393;DHT22;10857;52.228;21.026;2023-09-18T20:10:51;22.80;58.80
21393;DHT22;10857;52.228;21.026;2023-09-18T20:13:18;22.80;58.80
21393;DHT22;10857;52.228;21.026;2023-09-18T20:15:45;22.70;58.80
21393;DHT22;10857;52.228;21.026;2023-09-18T20:18:12;22.70;58.80
21393;DHT22;10857;52.228;21.026;2023-09-18T20:20:41;22.70;58.80
21393;DHT22;10857;52.228;21.026;2023-09-18T20:23:08;22.70;58.80
21393;DHT22;10857;52.228;21.026;2023-09-18T20:25:35;22.60;58.80
21393;DHT22;10857;52.228;21.026;2023-09-18T20:28:06;22.60;58.80
21393;DHT22;10857;52.228;21.026;2023-09-18T20:30:33;22.60;58.90
21393;DHT22;10857;52.228;21.026;2023-09-18T20:33:00;22.60;58.90
21393;DHT22;10857;52.228;21.026;2023-09-18T20:35:33;22.60;58.90
21393;DHT22;10857;52.228;21.026;2023-09-18T20:38:02;22.70;58.80
21393;DHT22;10857;52.228;21.026;2023-09-18T20:40:40;22.60;58.80
21393;DHT22;10857;52.228;21.026;2023-09-18T20:43:10;22.60;58.90
21393;DHT22;10857;52.228;21.026;2023-09-18T20:45:42;22.50;58.90
21393;DHT22;10857;52.228;21.026;2023-09-18T20:48:11;22.50;58.90
21393;DHT22;10857;52.228;21.026;2023-09-18T20:50:38;22.50;58.90
21393;DHT22;10857;52.228;21.026;2023-09-18T20:53:05;22.40;58.90
21393;DHT22;10857;52.228;21.026;2023-09-18T20:55:34;22.40;58.90
21393;DHT22;10857;52.228;21.026;2023-09-18T20:58:11;22.30;59.00
21393;DHT22;10857;52.228;21.026;2023-09-18T21:00:40;22.30;59.00
21393;DHT22;10857;52.228;21.026;2023-09-18T21:03:07;22.20;59.00
21393;DHT22;10857;52.228;21.026;2023-09-18T21:05:36;22.20;59.00
21393;DHT22;10857;52.228;21.026;2023-09-18T21:08:03;22.20;59.00
21393;DHT22;10857;52.228;21.026;2023-09-18T21:10:32;22.20;59.00
21393;DHT22;10857;52.228;21.026;2023-09-18T21:12:59;22.20;59.00